Time;durP1;ratioP1;P1;durP2;ratioP2;P2;SDS_P1;SDS_P2;PMS_P1;PMS_P2;Temp;Humidity;BMP_temperature;BMP_pressure;BME280_temperature;BME280_humidity;BME280_pressure;Samples;Min_cycle;Max_cycle;Signal;HPM_P1;HPM_P2
2021/09/09 00:00:44;;;;;;;12.00;3.72;;;;;;;18.50;59.76;100419.13;5143953;27;20094;-74
2021/09/09 00:03:09;;;;;;;8.60;3.60;;;;;;;18.55;60.12;100425.75;5144071;27;20023;-74
2021/09/09 00:05:35;;;;;;;7.78;3.42;;;;;;;18.45;60.07;100423.41;5143531;27;20043;-74
2021/09/09 00:08:01;;;;;;;9.23;3.80;;;;;;;18.51;60.03;100433.34;5125502;27;20046;-73
2021/09/09 00:10:27;;;;;;;9.52;3.80;;;;;;;18.59;60.09;100440.41;5124988;27;20098;-73
2021/09/09 00:12:53;;;;;;;12.27;4.18;;;;;;;18.55;60.43;100439.16;5143783;27;20269;-74
2021/09/09 00:15:18;;;;;;;10.45;4.22;;;;;;;18.46;61.23;100447.34;5143959;27;20045;-74
2021/09/09 00:17:44;;;;;;;6.25;3.42;;;;;;;18.41;61.25;100447.13;5143793;27;20308;-75
2021/09/09 00:20:10;;;;;;;8.73;3.67;;;;;;;18.47;60.74;100445.50;5143625;27;20061;-74
2021/09/09 00:22:37;;;;;;;7.22;3.53;;;;;;;18.46;60.91;100443.84;5143874;27;20035;-73
2021/09/09 00:25:03;;;;;;;10.57;3.83;;;;;;;18.29;61.24;100424.56;5125167;27;20035;-74
2021/09/09 00:27:28;;;;;;;6.82;3.50;;;;;;;18.32;61.47;100437.56;5143573;27;20015;-74
2021/09/09 00:29:54;;;;;;;12.13;3.97;;;;;;;18.27;61.67;100437.31;5143599;27;20216;-74
2021/09/09 00:32:19;;;;;;;8.40;4.18;;;;;;;18.21;62.40;100438.09;5143573;27;20038;-73
2021/09/09 00:34:45;;;;;;;7.97;3.70;;;;;;;18.07;62.53;100434.50;5143383;27;20027;-75
2021/09/09 00:37:11;;;;;;;12.30;3.90;;;;;;;18.11;62.81;100432.25;5143610;27;20038;-73
2021/09/09 00:39:37;;;;;;;6.75;3.53;;;;;;;18.08;62.62;100440.69;5142799;27;20269;-74
2021/09/09 00:42:02;;;;;;;11.40;4.10;;;;;;;18.22;62.71;100433.56;5143850;27;20312;-73
2021/09/09 00:44:28;;;;;;;8.43;3.97;;;;;;;18.27;62.51;100436.50;5124996;28;20042;-73
2021/09/09 00:47:04;;;;;;;10.95;3.90;;;;;;;18.32;62.34;100428.69;5125011;28;20034;-74
2021/09/09 00:49:31;;;;;;;8.40;4.00;;;;;;;18.31;61.99;100427.88;5142772;27;20061;-74
2021/09/09 00:51:56;;;;;;;6.85;4.05;;;;;;;18.38;62.00;100439.47;5143265;27;20039;-73
2021/09/09 00:54:22;;;;;;;7.22;4.38;;;;;;;18.37;62.17;100453.91;5124974;27;20042;-73
2021/09/09 00:56:49;;;;;;;9.85;4.20;;;;;;;18.40;61.88;100445.47;5143324;27;20363;-73
2021/09/09 00:59:14;;;;;;;7.97;4.43;;;;;;;18.50;61.75;100450.47;5125056;28;20038;-73
2021/09/09 01:01:41;;;;;;;7.00;3.88;;;;;;;18.44;61.68;100438.69;5143070;27;20022;-73
2021/09/09 01:04:07;;;;;;;9.25;3.90;;;;;;;18.47;62.05;100437.47;5143136;27;20057;-73
2021/09/09 01:06:32;;;;;;;9.10;3.90;;;;;;;18.43;61.82;100418.25;5143001;27;20317;-73
2021/09/09 01:08:58;;;;;;;11.05;4.05;;;;;;;18.38;62.13;100442.16;5124430;28;20027;-73
2021/09/09 01:11:24;;;;;;;7.90;4.13;;;;;;;18.28;62.10;100441.66;5124411;28;20023;-73
2021/09/09 01:13:50;;;;;;;9.77;4.32;;;;;;;18.14;62.64;100440.72;5143112;27;20213;-73
2021/09/09 01:16:16;;;;;;;8.18;4.20;;;;;;;18.19;63.07;100438.28;5142939;27;20147;-74
2021/09/09 01:18:41;;;;;;;9.18;3.90;;;;;;;18.21;63.09;100439.94;5143074;27;20031;-73
2021/09/09 01:21:07;;;;;;;9.05;4.30;;;;;;;18.41;62.21;100441.75;5124760;28;20027;-74
2021/09/09 01:23:33;;;;;;;7.70;3.67;;;;;;;18.35;62.73;100442.53;5143083;27;20031;-73
2021/09/09 01:25:59;;;;;;;9.95;3.90;;;;;;;18.57;62.05;100445.97;5143052;27;20292;-74
2021/09/09 01:28:24;;;;;;;8.85;3.97;;;;;;;18.48;61.81;100436.44;5143078;27;20027;-74
2021/09/09 01:30:50;;;;;;;13.93;4.00;;;;;;;18.61;61.80;100441.06;5124523;27;20039;-74
2021/09/09 01:33:15;;;;;;;5.50;3.33;;;;;;;18.47;62.41;100440.13;5142913;27;20365;-74
2021/09/09 01:35:41;;;;;;;10.27;3.97;;;;;;;18.37;62.52;100437.81;5143109;27;20209;-74
2021/09/09 01:38:18;;;;;;;7.40;3.72;;;;;;;18.42;62.48;100440.72;5142860;27;20027;-73
2021/09/09 01:40:44;;;;;;;6.88;3.92;;;;;;;18.26;62.46;100442.88;5142445;27;20058;-74
2021/09/09 01:43:09;;;;;;;8.88;4.55;;;;;;;18.08;62.96;100441.50;5143031;27;20205;-74
2021/09/09 01:45:35;;;;;;;6.35;4.20;;;;;;;18.03;63.28;100424.34;5143072;27;20208;-73
2021/09/09 01:48:01;;;;;;;9.20;4.57;;;;;;;18.00;62.90;100420.22;5126319;27;20312;-73
2021/09/09 01:50:26;;;;;;;6.85;4.25;;;;;;;18.08;63.04;100430.78;5124289;28;20054;-74
2021/09/09 01:52:52;;;;;;;8.02;4.07;;;;;;;18.20;62.67;100439.13;5126020;28;20058;-74
2021/09/09 01:55:18;;;;;;;4.82;4.20;;;;;;;18.10;62.67;100444.00;5124439;28;20046;-74
2021/09/09 01:57:43;;;;;;;12.68;4.38;;;;;;;18.03;62.70;100421.69;5126019;28;20031;-74
2021/09/09 02:00:09;;;;;;;7.85;4.10;;;;;;;17.92;63.17;100422.19;5125644;28;20080;-74
2021/09/09 02:02:34;;;;;;;8.43;3.97;;;;;;;17.93;62.94;100430.03;5125700;28;20031;-73
2021/09/09 02:05:00;;;;;;;8.68;4.13;;;;;;;17.96;62.97;100440.38;5125748;28;20032;-73
2021/09/09 02:07:25;;;;;;;9.57;4.43;;;;;;;17.83;63.77;100432.22;5125672;28;20038;-74
2021/09/09 02:09:51;;;;;;;5.03;4.00;;;;;;;17.94;63.43;100436.22;5124814;28;20024;-74
2021/09/09 02:12:16;;;;;;;10.88;4.22;;;;;;;17.91;63.06;100429.41;5125691;28;20343;-73
2021/09/09 02:14:42;;;;;;;8.27;4.88;;;;;;;17.69;64.06;100420.56;5124255;28;20352;-73
2021/09/09 02:17:09;;;;;;;10.02;4.70;;;;;;;17.93;63.23;100423.84;5126040;28;20073;-74
2021/09/09 02:19:34;;;;;;;10.52;4.40;;;;;;;17.91;63.21;100420.53;5125342;28;20028;-73
2021/09/09 02:22:00;;;;;;;10.35;4.35;;;;;;;17.55;64.63;100418.72;5125495;28;20092;-73
2021/09/09 02:24:25;;;;;;;11.20;4.85;;;;;;;17.42;65.21;100418.56;5125350;28;20040;-74
2021/09/09 02:26:51;;;;;;;11.93;4.72;;;;;;;17.37;65.51;100412.97;5125282;28;20023;-74
2021/09/09 02:29:16;;;;;;;10.50;4.97;;;;;;;17.35;65.74;100404.28;5125258;28;20046;-74
2021/09/09 02:31:42;;;;;;;7.22;4.93;;;;;;;17.53;65.20;100402.00;5125157;28;20239;-73
2021/09/09 02:34:07;;;;;;;9.15;4.65;;;;;;;17.58;65.09;100407.63;5125033;28;20095;-73
2021/09/09 02:36:33;;;;;;;7.85;4.50;;;;;;;17.73;64.13;100404.94;5123901;28;20032;-74
2021/09/09 02:38:59;;;;;;;8.75;4.18;;;;;;;17.74;64.26;100410.09;5124675;28;20031;-74
2021/09/09 02:41:25;;;;;;;7.80;3.95;;;;;;;17.69;64.31;100411.69;5123717;28;20055;-74
2021/09/09 02:43:50;;;;;;;6.28;4.28;;;;;;;17.55;64.33;100397.28;5124941;28;20019;-74
2021/09/09 02:46:16;;;;;;;6.45;4.35;;;;;;;17.64;64.04;100411.38;5124724;28;20035;-73
2021/09/09 02:48:41;;;;;;;9.52;4.43;;;;;;;17.65;65.27;100407.69;5124849;28;20329;-74
2021/09/09 02:51:06;;;;;;;26.75;5.38;;;;;;;17.59;66.27;100397.72;5123123;28;20043;-74
2021/09/09 02:53:32;;;;;;;12.85;4.90;;;;;;;17.55;67.35;100386.56;5124862;28;20019;-74
2021/09/09 02:55:57;;;;;;;9.52;5.43;;;;;;;17.70;67.80;100403.47;5124695;28;20038;-74
2021/09/09 02:58:23;;;;;;;12.48;5.38;;;;;;;17.38;68.12;100388.69;5124754;28;20241;-73
2021/09/09 03:00:48;;;;;;;9.20;5.20;;;;;;;17.38;69.58;100390.53;5124567;28;20028;-74
2021/09/09 03:03:14;;;;;;;7.75;5.22;;;;;;;17.44;69.57;100400.47;5124502;28;20019;-74
2021/09/09 03:05:39;;;;;;;10.10;5.15;;;;;;;17.43;70.07;100393.47;5124763;28;20031;-73
2021/09/09 03:08:05;;;;;;;8.73;4.80;;;;;;;17.55;68.95;100391.94;5123328;28;20068;-74
2021/09/09 03:10:30;;;;;;;9.77;4.80;;;;;;;17.37;68.98;100394.22;5123884;28;20055;-73
2021/09/09 03:12:56;;;;;;;7.22;4.55;;;;;;;17.19;69.59;100387.44;5123233;28;20015;-74
2021/09/09 03:15:21;;;;;;;11.02;4.60;;;;;;;17.13;70.10;100374.81;5124090;28;20027;-73
2021/09/09 03:17:46;;;;;;;13.38;4.60;;;;;;;17.27;69.73;100386.50;5124318;28;20020;-74
2021/09/09 03:20:13;;;;;;;8.27;4.75;;;;;;;17.16;69.42;100387.84;5124280;28;20039;-73
2021/09/09 03:22:38;;;;;;;5.88;4.82;;;;;;;17.30;69.77;100394.16;5124483;27;20086;-74
2021/09/09 03:25:04;;;;;;;8.88;5.03;;;;;;;17.26;70.47;100395.56;5123940;28;20336;-74
2021/09/09 03:27:29;;;;;;;10.43;5.13;;;;;;;17.26;70.67;100387.53;5124068;28;20205;-74
2021/09/09 03:29:55;;;;;;;10.70;4.60;;;;;;;17.39;70.10;100402.88;5124009;28;20027;-74
2021/09/09 03:32:20;;;;;;;8.13;4.85;;;;;;;17.29;70.01;100402.38;5124101;28;20051;-74
2021/09/09 03:34:46;;;;;;;7.03;4.43;;;;;;;17.27;69.75;100388.34;5122590;28;20239;-74
2021/09/09 03:37:11;;;;;;;8.07;4.47;;;;;;;17.37;69.84;100405.75;5124173;28;20036;-73
2021/09/09 03:39:37;;;;;;;11.13;5.50;;;;;;;17.50;69.55;100405.91;5123114;28;20080;-74
2021/09/09 03:42:03;;;;;;;5.55;4.47;;;;;;;17.35;70.79;100404.28;5123916;28;20346;-74
2021/09/09 03:44:28;;;;;;;7.43;4.80;;;;;;;17.68;68.79;100397.44;5122479;28;20024;-73
2021/09/09 03:46:53;;;;;;;8.07;5.22;;;;;;;17.72;69.17;100400.59;5122818;28;20019;-74
2021/09/09 03:49:19;;;;;;;7.68;5.20;;;;;;;17.85;68.51;100403.38;5123503;28;20046;-73
2021/09/09 03:51:44;;;;;;;11.20;4.80;;;;;;;17.96;67.72;100407.41;5143856;27;20043;-73
2021/09/09 03:54:10;;;;;;;6.97;4.50;;;;;;;17.89;68.07;100401.16;5144295;27;20086;-73
2021/09/09 03:56:35;;;;;;;7.10;4.68;;;;;;;18.06;67.32;100406.03;5125629;27;20043;-74
2021/09/09 03:59:01;;;;;;;5.60;4.20;;;;;;;17.99;66.80;100401.66;5125929;27;20228;-73
2021/09/09 04:01:26;;;;;;;10.20;5.05;;;;;;;17.74;67.55;100399.38;5125503;27;20030;-73
2021/09/09 04:03:51;;;;;;;11.20;4.72;;;;;;;17.81;67.31;100397.59;5143903;27;20198;-73
2021/09/09 04:06:17;;;;;;;8.70;4.72;;;;;;;17.81;67.78;100404.81;5143803;27;20027;-73
2021/09/09 04:08:43;;;;;;;9.77;5.10;;;;;;;17.90;67.53;100411.69;5125173;27;20216;-74
2021/09/09 04:11:08;;;;;;;11.73;5.13;;;;;;;17.72;68.59;100417.50;5143353;27;20158;-73
2021/09/09 04:13:33;;;;;;;10.02;4.90;;;;;;;17.77;68.62;100417.75;5125788;27;20015;-74
2021/09/09 04:15:59;;;;;;;10.82;5.00;;;;;;;17.97;68.25;100409.06;5143538;27;20031;-74
2021/09/09 04:18:24;;;;;;;10.15;4.90;;;;;;;17.86;67.91;100395.16;5143773;27;20038;-74
2021/09/09 04:20:50;;;;;;;11.95;5.38;;;;;;;18.01;67.84;100402.28;5143965;27;20239;-73
2021/09/09 04:23:15;;;;;;;9.32;4.88;;;;;;;17.96;67.55;100400.19;5143870;27;20076;-74
2021/09/09 04:25:41;;;;;;;7.50;4.72;;;;;;;17.96;67.18;100391.31;5143442;27;20037;-73
2021/09/09 04:28:06;;;;;;;7.22;4.53;;;;;;;17.86;67.21;100383.63;5143740;27;20054;-73
2021/09/09 04:30:31;;;;;;;7.70;5.07;;;;;;;18.07;66.31;100398.81;5143251;27;20046;-74
2021/09/09 04:32:57;;;;;;;7.72;4.30;;;;;;;17.93;66.36;100395.22;5143658;27;20084;-74
2021/09/09 04:35:22;;;;;;;12.55;4.30;;;;;;;17.98;66.53;100397.31;5143748;27;20031;-73
2021/09/09 04:37:48;;;;;;;14.95;4.47;;;;;;;18.06;66.54;100395.31;5143361;27;20035;-74
2021/09/09 04:40:13;;;;;;;12.45;4.70;;;;;;;18.09;66.16;100402.13;5142957;27;20030;-75
2021/09/09 04:42:39;;;;;;;10.20;4.75;;;;;;;18.06;66.09;100400.69;5143492;27;20031;-74
2021/09/09 04:45:05;;;;;;;9.32;4.60;;;;;;;18.07;66.73;100401.50;5143548;27;20086;-75
2021/09/09 04:47:30;;;;;;;7.30;4.28;;;;;;;18.21;66.25;100395.22;5143429;27;20244;-74
2021/09/09 04:49:56;;;;;;;16.88;5.28;;;;;;;17.84;67.66;100391.84;5142736;27;20034;-74
2021/09/09 04:52:21;;;;;;;12.32;5.00;;;;;;;17.90;68.15;100392.91;5143390;27;20356;-74
2021/09/09 04:54:47;;;;;;;10.90;5.63;;;;;;;17.83;69.62;100400.06;5124979;28;20031;-74
2021/09/09 04:57:13;;;;;;;11.40;5.20;;;;;;;17.80;70.45;100401.28;5143398;27;20027;-74
2021/09/09 04:59:38;;;;;;;9.60;5.70;;;;;;;17.77;70.46;100390.13;5143284;27;20039;-74
2021/09/09 05:02:04;;;;;;;11.98;5.38;;;;;;;17.75;71.19;100386.81;5143347;27;20209;-73
2021/09/09 05:04:29;;;;;;;11.88;5.15;;;;;;;17.80;71.58;100389.75;5124655;28;20324;-73
2021/09/09 05:06:55;;;;;;;11.70;4.97;;;;;;;17.86;71.89;100386.28;5143348;27;20258;-73
2021/09/09 05:09:20;;;;;;;9.30;5.07;;;;;;;17.63;71.65;100391.81;5124283;28;20031;-74
2021/09/09 05:11:45;;;;;;;14.98;5.20;;;;;;;17.82;72.48;100401.94;5142983;27;20046;-73
2021/09/09 05:14:11;;;;;;;11.32;5.50;;;;;;;18.06;69.97;100394.50;5124866;28;20298;-72
2021/09/09 05:16:36;;;;;;;17.80;5.43;;;;;;;18.02;71.29;100402.09;5143109;27;20035;-75
2021/09/09 05:19:03;;;;;;;11.00;5.53;;;;;;;18.01;72.16;100395.06;5143271;27;20029;-74
2021/09/09 05:21:29;;;;;;;10.93;5.40;;;;;;;18.14;72.91;100400.53;5141980;27;20027;-73
2021/09/09 05:23:54;;;;;;;12.10;5.50;;;;;;;18.01;73.63;100399.59;5145782;27;20023;-74
2021/09/09 05:26:20;;;;;;;12.65;6.03;;;;;;;18.00;73.73;100405.97;5145977;27;20031;-74
2021/09/09 05:28:45;;;;;;;8.68;5.43;;;;;;;18.00;74.27;100393.41;5146207;27;20194;-74
2021/09/09 05:31:11;;;;;;;11.75;5.25;;;;;;;18.14;73.78;100402.38;5127480;27;20042;-74
2021/09/09 05:33:36;;;;;;;9.77;5.47;;;;;;;18.26;72.30;100400.00;5127746;27;20184;-74
2021/09/09 05:36:02;;;;;;;11.25;5.60;;;;;;;18.29;73.09;100411.16;5127458;27;20027;-73
2021/09/09 05:38:27;;;;;;;11.18;5.45;;;;;;;18.43;72.67;100409.38;5145669;27;20042;-74
2021/09/09 05:40:52;;;;;;;15.13;6.28;;;;;;;18.32;73.88;100397.34;5145756;27;20027;-74
2021/09/09 05:43:18;;;;;;;10.27;5.63;;;;;;;18.34;73.97;100400.66;5145836;27;20030;-74
2021/09/09 05:45:44;;;;;;;9.88;5.82;;;;;;;18.31;74.73;100410.94;5145717;27;20057;-74
2021/09/09 05:48:09;;;;;;;10.73;5.95;;;;;;;18.25;75.29;100392.97;5145756;27;20070;-73
2021/09/09 05:50:35;;;;;;;8.93;6.30;;;;;;;18.34;74.88;100389.13;5126536;27;20042;-73
2021/09/09 05:53:00;;;;;;;11.52;6.70;;;;;;;18.46;73.52;100395.56;5127251;27;20031;-74
2021/09/09 05:55:26;;;;;;;12.55;6.75;;;;;;;18.37;74.04;100402.13;5145498;27;20033;-73
2021/09/09 05:57:51;;;;;;;11.98;6.28;;;;;;;18.24;74.95;100394.00;5127262;27;20035;-73
2021/09/09 06:00:17;;;;;;;13.68;6.45;;;;;;;18.07;75.77;100396.16;5145332;27;20031;-73
2021/09/09 06:02:45;;;;;;;12.30;6.35;;;;;;;18.32;74.04;100394.66;5145577;27;20034;-74
2021/09/09 06:05:12;;;;;;;11.43;6.20;;;;;;;18.19;75.96;100394.59;5145374;27;20140;-73
2021/09/09 06:07:38;;;;;;;17.65;6.45;;;;;;;18.28;76.02;100387.22;5145242;27;20038;-74
2021/09/09 06:10:04;;;;;;;9.43;5.82;;;;;;;18.43;75.00;100391.44;5144950;27;20222;-74
2021/09/09 06:12:30;;;;;;;8.95;4.88;;;;;;;18.49;74.83;100385.28;5145326;27;20035;-74
2021/09/09 06:14:56;;;;;;;10.52;5.25;;;;;;;18.55;74.37;100394.41;5145300;27;20186;-73
2021/09/09 06:17:22;;;;;;;10.13;5.78;;;;;;;18.52;73.87;100390.25;5126821;27;20298;-74
2021/09/09 06:19:47;;;;;;;9.48;4.85;;;;;;;18.44;74.61;100393.09;5144998;27;20043;-74
2021/09/09 06:22:13;;;;;;;12.95;5.15;;;;;;;18.43;74.44;100385.25;5145055;27;20309;-73
2021/09/09 06:24:38;;;;;;;11.25;5.32;;;;;;;18.52;73.79;100392.94;5126397;27;20027;-74
2021/09/09 06:27:04;;;;;;;10.45;5.47;;;;;;;18.73;73.30;100383.19;5145094;27;20034;-74
2021/09/09 06:29:29;;;;;;;10.82;5.78;;;;;;;18.77;73.38;100395.19;5126536;27;20054;-73
2021/09/09 06:31:55;;;;;;;13.15;5.72;;;;;;;18.82;73.78;100392.72;5126394;27;20060;-74
2021/09/09 06:34:20;;;;;;;7.35;5.20;;;;;;;18.75;73.88;100390.00;5144503;27;20319;-74
2021/09/09 06:36:46;;;;;;;9.68;4.93;;;;;;;19.04;72.41;100398.81;5144687;27;20225;-73
2021/09/09 06:39:14;;;;;;;14.02;5.22;;;;;;;19.15;71.45;100403.59;5125906;27;20043;-74
2021/09/09 06:41:40;;;;;;;10.00;5.47;;;;;;;19.24;72.74;100402.38;5144466;27;20359;-74
2021/09/09 06:44:06;;;;;;;15.20;6.25;;;;;;;19.30;71.48;100406.09;5126442;27;20225;-73
2021/09/09 06:46:31;;;;;;;10.68;6.35;;;;;;;19.21;72.45;100391.22;5144454;27;20046;-73
2021/09/09 06:48:57;;;;;;;16.45;6.15;;;;;;;19.22;72.80;100392.88;5126342;27;20063;-74
2021/09/09 06:51:23;;;;;;;11.32;6.13;;;;;;;19.33;70.65;100392.28;5143952;27;20039;-75
2021/09/09 06:53:49;;;;;;;8.55;6.10;;;;;;;19.22;70.97;100403.59;5144406;27;20031;-74
2021/09/09 06:56:15;;;;;;;10.88;6.53;;;;;;;19.16;71.07;100389.13;5144581;27;20034;-74
2021/09/09 06:58:40;;;;;;;17.85;7.47;;;;;;;19.31;72.81;100407.75;5144602;27;20023;-74
2021/09/09 07:01:06;;;;;;;12.23;6.70;;;;;;;19.42;71.44;100409.84;5144249;27;20058;-74
2021/09/09 07:03:31;;;;;;;11.43;6.43;;;;;;;19.79;69.37;100418.44;5144651;27;20094;-74
2021/09/09 07:05:57;;;;;;;16.50;6.15;;;;;;;20.08;69.18;100416.16;5144442;27;20039;-74
2021/09/09 07:08:23;;;;;;;9.73;5.45;;;;;;;20.33;68.06;100415.53;5125589;27;20340;-74
2021/09/09 07:10:49;;;;;;;12.95;5.55;;;;;;;20.76;66.33;100409.66;5143760;27;20338;-75
2021/09/09 07:13:17;;;;;;;14.27;5.05;;;;;;;20.56;64.88;100385.50;5144240;27;20031;-74
2021/09/09 07:15:43;;;;;;;12.73;5.25;;;;;;;20.56;65.40;100402.47;5143843;27;20090;-73
2021/09/09 07:18:09;;;;;;;10.32;4.47;;;;;;;20.50;64.24;100395.25;5125572;27;20027;-74
2021/09/09 07:20:34;;;;;;;9.30;4.15;;;;;;;21.00;62.96;100401.72;5144039;27;20159;-74
2021/09/09 07:22:59;;;;;;;12.93;4.82;;;;;;;20.83;63.37;100411.31;5144055;27;20042;-74
2021/09/09 07:25:25;;;;;;;10.50;4.53;;;;;;;20.92;63.92;100406.53;5125316;27;20067;-74
2021/09/09 07:27:50;;;;;;;14.50;4.25;;;;;;;21.01;63.90;100400.69;5125370;27;20099;-74
2021/09/09 07:30:16;;;;;;;10.95;4.93;;;;;;;21.11;63.10;100408.28;5143748;27;20242;-74
2021/09/09 07:32:41;;;;;;;12.95;5.55;;;;;;;21.32;62.25;100405.31;5143775;27;20041;-75
2021/09/09 07:35:09;;;;;;;12.73;5.25;;;;;;;21.57;61.34;100408.06;5143627;27;20042;-75
2021/09/09 07:37:34;;;;;;;7.35;4.95;;;;;;;21.24;61.38;100402.88;5143444;27;20228;-75
2021/09/09 07:40:00;;;;;;;13.23;5.03;;;;;;;21.39;61.74;100407.13;5143152;27;20031;-73
2021/09/09 07:42:26;;;;;;;17.05;5.00;;;;;;;21.23;62.44;100400.41;5143498;27;20041;-74
2021/09/09 07:44:51;;;;;;;13.45;4.65;;;;;;;21.21;61.31;100403.28;5142862;27;20039;-73
2021/09/09 07:47:17;;;;;;;11.13;4.97;;;;;;;21.10;62.65;100408.50;5143447;27;20025;-74
2021/09/09 07:49:42;;;;;;;8.43;4.40;;;;;;;20.91;62.61;100421.84;5142991;27;20225;-75
2021/09/09 07:52:08;;;;;;;9.00;4.57;;;;;;;20.80;62.34;100400.94;5125131;27;20305;-75
2021/09/09 07:54:33;;;;;;;15.30;5.22;;;;;;;20.72;62.75;100410.09;5143300;27;20035;-74
2021/09/09 07:56:59;;;;;;;10.43;4.40;;;;;;;20.47;62.99;100400.22;5124900;27;20027;-75
2021/09/09 07:59:24;;;;;;;7.68;4.18;;;;;;;20.63;63.34;100407.84;5142959;27;20324;-74
2021/09/09 08:01:50;;;;;;;12.85;4.25;;;;;;;20.73;61.74;100400.13;5124799;27;20019;-73
2021/09/09 08:04:16;;;;;;;8.95;4.65;;;;;;;20.46;62.97;100404.78;5124797;27;20023;-74
2021/09/09 08:06:46;;;;;;;10.77;4.63;;;;;;;20.48;63.13;100409.94;5124517;27;20023;-75
2021/09/09 08:09:12;;;;;;;9.98;4.45;;;;;;;20.50;62.96;100415.94;5142730;27;20027;-73
2021/09/09 08:11:38;;;;;;;8.98;4.65;;;;;;;20.47;63.51;100416.34;5124241;27;20026;-74
2021/09/09 08:14:04;;;;;;;16.35;4.75;;;;;;;20.47;62.37;100395.66;5142841;27;20064;-75
2021/09/09 08:16:30;;;;;;;12.05;5.20;;;;;;;20.49;63.59;100412.41;5142818;27;20317;-73
2021/09/09 08:18:55;;;;;;;12.38;4.80;;;;;;;20.66;63.14;100399.34;5142754;27;20086;-73
2021/09/09 08:21:21;;;;;;;8.95;4.95;;;;;;;20.60;62.37;100409.09;5124209;27;20331;-73
2021/09/09 08:23:46;;;;;;;12.75;5.43;;;;;;;20.61;63.11;100396.44;5124553;27;20342;-73
2021/09/09 08:26:12;;;;;;;8.48;4.90;;;;;;;20.69;62.10;100405.13;5142626;27;20031;-74
2021/09/09 08:28:39;;;;;;;16.73;5.10;;;;;;;20.56;62.64;100402.47;5142624;27;20023;-75
2021/09/09 08:31:05;;;;;;;7.65;4.70;;;;;;;20.67;62.31;100403.69;5142498;27;20151;-74
2021/09/09 08:33:31;;;;;;;8.73;4.40;;;;;;;20.63;62.08;100395.19;5142580;27;20035;-73
2021/09/09 08:35:57;;;;;;;10.77;4.95;;;;;;;20.73;61.73;100397.44;5124184;27;20344;-73
2021/09/09 08:38:22;;;;;;;12.10;4.63;;;;;;;20.60;61.29;100398.31;5142352;27;20031;-74
2021/09/09 08:40:50;;;;;;;10.05;4.80;;;;;;;20.62;62.03;100393.56;5142440;27;20035;-75
2021/09/09 08:43:16;;;;;;;9.80;4.28;;;;;;;20.70;61.26;100389.81;5142516;27;20404;-74
2021/09/09 08:45:42;;;;;;;13.43;4.88;;;;;;;21.00;60.69;100390.94;5124091;27;20024;-73
2021/09/09 08:48:09;;;;;;;11.70;4.60;;;;;;;20.96;60.75;100384.34;5142586;27;20055;-74
2021/09/09 08:50:34;;;;;;;9.40;4.60;;;;;;;21.03;59.94;100387.00;5141953;27;20343;-75
2021/09/09 08:53:01;;;;;;;9.73;4.53;;;;;;;21.11;59.40;100389.44;5142458;27;20026;-73
2021/09/09 08:55:27;;;;;;;7.43;4.20;;;;;;;21.20;59.47;100390.84;5142365;27;20047;-74
2021/09/09 08:57:55;;;;;;;9.07;4.35;;;;;;;21.34;58.85;100376.28;5146181;27;20035;-74
2021/09/09 09:00:20;;;;;;;11.02;4.28;;;;;;;21.50;58.43;100385.72;5146763;27;20039;-75
2021/09/09 09:02:47;;;;;;;14.50;4.35;;;;;;;21.63;57.90;100376.72;5128295;27;20080;-74
2021/09/09 09:05:13;;;;;;;10.40;4.20;;;;;;;21.67;57.32;100369.84;5146479;27;20046;-75
2021/09/09 09:07:38;;;;;;;8.73;3.85;;;;;;;21.86;56.49;100379.66;5146381;27;20031;-73
2021/09/09 09:10:06;;;;;;;11.88;3.85;;;;;;;21.91;56.86;100368.22;5145958;27;20043;-73
2021/09/09 09:12:47;;;;;;;9.98;3.70;;;;;;;21.97;56.11;100372.72;5146449;27;20385;-74
2021/09/09 09:15:22;;;;;;;10.15;4.30;;;;;;;21.96;56.53;100376.47;5146580;27;20042;-74
2021/09/09 09:18:08;;;;;;;4.80;3.10;;;;;;;21.78;55.82;100362.91;5128105;27;20046;-75
2021/09/09 09:20:44;;;;;;;7.68;3.78;;;;;;;21.70;56.64;100366.72;5146220;27;20056;-74
2021/09/09 09:23:20;;;;;;;10.40;3.40;;;;;;;21.75;57.42;100364.19;5128042;27;20023;-74
2021/09/09 09:25:52;;;;;;;6.50;3.80;;;;;;;21.96;56.65;100365.69;5128018;27;20304;-73
2021/09/09 09:28:44;;;;;;;5.97;3.17;;;;;;;21.86;54.65;100350.00;5146181;27;20307;-74
2021/09/09 09:31:11;;;;;;;14.23;3.38;;;;;;;21.97;55.44;100359.25;5146187;27;20045;-74
2021/09/09 09:33:39;;;;;;;8.50;3.47;;;;;;;21.86;56.50;100357.28;5146138;27;20037;-74
2021/09/09 09:36:16;;;;;;;5.50;3.25;;;;;;;21.82;56.02;100367.66;5127345;27;20030;-74
2021/09/09 09:38:43;;;;;;;9.52;3.85;;;;;;;21.86;56.06;100349.19;5145686;27;20211;-74
2021/09/09 09:41:09;;;;;;;8.05;3.05;;;;;;;21.93;55.99;100356.16;5145933;27;20027;-75
2021/09/09 09:43:35;;;;;;;8.93;3.28;;;;;;;21.95;56.38;100346.00;5145826;27;20031;-73
2021/09/09 09:46:02;;;;;;;8.55;3.75;;;;;;;21.75;55.93;100347.19;5127185;27;20023;-74
2021/09/09 09:48:30;;;;;;;7.25;2.90;;;;;;;21.77;55.89;100355.88;5145950;27;20102;-75
2021/09/09 09:50:56;;;;;;;11.48;3.17;;;;;;;21.75;55.22;100347.19;5145318;27;20225;-73
2021/09/09 09:53:22;;;;;;;12.43;3.63;;;;;;;21.84;55.96;100357.47;5127280;27;20036;-73
2021/09/09 09:55:48;;;;;;;9.27;3.08;;;;;;;21.85;55.24;100348.38;5127123;27;20065;-74
2021/09/09 09:58:15;;;;;;;9.32;3.40;;;;;;;21.86;55.23;100350.00;5145596;27;20019;-74
2021/09/09 10:00:41;;;;;;;7.25;2.90;;;;;;;21.98;55.62;100350.13;5139016;27;20306;-73
2021/09/09 10:03:07;;;;;;;5.47;2.97;;;;;;;22.12;55.18;100351.66;5143590;27;20228;-73
2021/09/09 10:05:35;;;;;;;5.93;3.13;;;;;;;22.10;54.29;100345.66;5145252;27;20045;-74
2021/09/09 10:08:02;;;;;;;6.72;3.40;;;;;;;22.17;54.36;100338.34;5142443;27;20063;-74
2021/09/09 10:10:27;;;;;;;11.32;3.42;;;;;;;22.28;53.13;100339.47;5144379;27;20065;-74
2021/09/09 10:12:53;;;;;;;12.45;3.00;;;;;;;22.20;53.05;100335.19;5126395;27;20031;-74
2021/09/09 10:15:21;;;;;;;11.02;3.58;;;;;;;22.25;54.50;100323.72;5125592;27;20031;-75
2021/09/09 10:17:47;;;;;;;6.70;3.00;;;;;;;22.40;53.86;100331.44;5143550;27;20064;-74
2021/09/09 10:20:42;;;;;;;8.73;2.88;;;;;;;22.45;53.18;100337.00;5144730;27;20039;-75
2021/09/09 10:23:10;;;;;;;10.75;2.75;;;;;;;22.47;52.45;100338.41;5118452;27;20074;-75
2021/09/09 10:25:46;;;;;;;11.18;3.88;;;;;;;22.59;53.09;100335.78;5142041;27;20102;-74
2021/09/09 10:28:46;;;;;;;8.32;3.05;;;;;;;22.60;52.74;100332.03;5144952;27;20042;-75
2021/09/09 10:31:18;;;;;;;13.32;3.45;;;;;;;22.61;52.24;100333.69;5129650;27;20047;-73
2021/09/09 10:33:49;;;;;;;10.07;2.92;;;;;;;22.48;53.13;100339.25;5143168;27;20060;-73
2021/09/09 10:36:42;;;;;;;9.77;3.42;;;;;;;22.55;53.28;100332.72;5125497;27;20218;-75
2021/09/09 10:39:19;;;;;;;8.02;3.35;;;;;;;22.39;53.32;100324.41;5143055;27;20244;-73
2021/09/09 10:41:45;;;;;;;15.27;5.68;;;;;;;22.21;53.26;100326.06;5144263;27;20042;-74
2021/09/09 10:44:11;;;;;;;11.82;4.60;;;;;;;22.24;53.18;100325.59;5143577;27;20035;-74
2021/09/09 10:46:41;;;;;;;11.30;4.07;;;;;;;22.07;53.85;100313.75;5142328;27;20062;-75
2021/09/09 10:49:20;;;;;;;7.82;3.80;;;;;;;22.08;54.38;100314.56;5144348;27;20043;-75
2021/09/09 10:52:14;;;;;;;11.02;3.13;;;;;;;22.10;54.31;100309.78;5143335;27;20036;-74
2021/09/09 10:54:59;;;;;;;8.23;3.27;;;;;;;22.06;55.16;100308.59;5144194;27;20305;-74
2021/09/09 10:57:25;;;;;;;10.80;3.53;;;;;;;21.97;56.37;100316.94;5125138;27;20042;-73
2021/09/09 10:59:50;;;;;;;13.63;4.18;;;;;;;21.75;59.33;100301.34;5143510;27;20039;-74
2021/09/09 11:02:18;;;;;;;9.95;4.28;;;;;;;21.61;63.01;100314.94;5143821;27;20019;-75
2021/09/09 11:04:44;;;;;;;12.80;4.28;;;;;;;21.26;65.18;100314.59;5143635;27;20111;-74
2021/09/09 11:07:25;;;;;;;13.43;4.95;;;;;;;21.18;67.71;100309.44;5142303;27;20325;-73
2021/09/09 11:10:04;;;;;;;9.90;4.45;;;;;;;20.85;68.56;100314.19;5143653;27;20106;-73
2021/09/09 11:12:51;;;;;;;22.13;4.80;;;;;;;20.41;71.38;100294.28;5143629;27;20377;-73
2021/09/09 11:15:16;;;;;;;11.93;5.50;;;;;;;20.55;72.43;100305.81;5143428;27;20035;-74
2021/09/09 11:17:42;;;;;;;13.80;6.03;;;;;;;20.34;73.76;100294.28;5143686;27;20019;-74
2021/09/09 11:20:10;;;;;;;15.20;5.35;;;;;;;20.26;75.11;100299.06;5142582;27;20047;-74